sensor_id;sensor_type;location;lat;lon;timestamp;P1;durP1;ratioP1;P2;durP2;ratioP2
22841;SDS011;11587;47.064;15.444;2023-04-24T00:00:56;0.30;;;0.30;;
22841;SDS011;11587;47.064;15.444;2023-04-24T00:03:24;0.30;;;0.30;;
22841;SDS011;11587;47.064;15.444;2023-04-24T00:05:50;0.30;;;0.30;;
22841;SDS011;11587;47.064;15.444;2023-04-24T00:08:17;0.40;;;0.40;;
22841;SDS011;11587;47.064;15.444;2023-04-24T00:10:43;0.30;;;0.30;;
22841;SDS011;11587;47.064;15.444;2023-04-24T00:13:09;0.30;;;0.30;;
22841;SDS011;11587;47.064;15.444;2023-04-24T00:15:35;0.30;;;0.30;;
22841;SDS011;11587;47.064;15.444;2023-04-24T00:18:01;0.20;;;0.20;;
22841;SDS011;11587;47.064;15.444;2023-04-24T00:20:27;0.30;;;0.30;;
22841;SDS011;11587;47.064;15.444;2023-04-24T00:23:02;0.30;;;0.30;;
22841;SDS011;11587;47.064;15.444;2023-04-24T00:25:29;0.20;;;0.20;;
22841;SDS011;11587;47.064;15.444;2023-04-24T00:27:55;0.30;;;0.30;;
22841;SDS011;11587;47.064;15.444;2023-04-24T00:30:21;0.30;;;0.30;;
22841;SDS011;11587;47.064;15.444;2023-04-24T00:32:47;0.30;;;0.30;;
22841;SDS011;11587;47.064;15.444;2023-04-24T00:35:13;0.20;;;0.20;;
22841;SDS011;11587;47.064;15.444;2023-04-24T00:37:39;0.30;;;0.30;;
22841;SDS011;11587;47.064;15.444;2023-04-24T00:40:06;0.20;;;0.20;;
22841;SDS011;11587;47.064;15.444;2023-04-24T00:42:32;0.20;;;0.20;;
22841;SDS011;11587;47.064;15.444;2023-04-24T00:44:58;0.30;;;0.30;;
22841;SDS011;11587;47.064;15.444;2023-04-24T00:47:26;0.30;;;0.30;;
22841;SDS011;11587;47.064;15.444;2023-04-24T00:49:52;0.30;;;0.30;;
22841;SDS011;11587;47.064;15.444;2023-04-24T00:52:18;0.30;;;0.30;;
22841;SDS011;11587;47.064;15.444;2023-04-24T00:54:45;0.30;;;0.30;;
22841;SDS011;11587;47.064;15.444;2023-04-24T00:57:12;0.30;;;0.30;;
22841;SDS011;11587;47.064;15.444;2023-04-24T00:59:38;0.30;;;0.30;;
22841;SDS011;11587;47.064;15.444;2023-04-24T01:02:06;0.30;;;0.30;;
22841;SDS011;11587;47.064;15.444;2023-04-24T01:04:32;0.30;;;0.30;;
22841;SDS011;11587;47.064;15.444;2023-04-24T01:06:58;0.20;;;0.20;;
22841;SDS011;11587;47.064;15.444;2023-04-24T01:09:25;0.40;;;0.40;;
22841;SDS011;11587;47.064;15.444;2023-04-24T01:11:51;0.30;;;0.30;;
22841;SDS011;11587;47.064;15.444;2023-04-24T01:14:17;0.30;;;0.30;;
22841;SDS011;11587;47.064;15.444;2023-04-24T01:16:43;0.30;;;0.30;;
22841;SDS011;11587;47.064;15.444;2023-04-24T01:19:09;0.30;;;0.30;;
22841;SDS011;11587;47.064;15.444;2023-04-24T01:21:36;0.30;;;0.30;;
22841;SDS011;11587;47.064;15.444;2023-04-24T01:24:03;0.40;;;0.40;;
22841;SDS011;11587;47.064;15.444;2023-04-24T01:26:29;0.20;;;0.20;;
22841;SDS011;11587;47.064;15.444;2023-04-24T01:28:55;0.20;;;0.20;;
22841;SDS011;11587;47.064;15.444;2023-04-24T01:31:21;0.30;;;0.30;;
22841;SDS011;11587;47.064;15.444;2023-04-24T01:33:47;0.30;;;0.30;;
22841;SDS011;11587;47.064;15.444;2023-04-24T01:36:13;0.30;;;0.30;;
22841;SDS011;11587;47.064;15.444;2023-04-24T01:38:39;0.30;;;0.30;;
22841;SDS011;11587;47.064;15.444;2023-04-24T01:41:05;0.30;;;0.30;;
22841;SDS011;11587;47.064;15.444;2023-04-24T01:43:31;0.30;;;0.30;;
22841;SDS011;11587;47.064;15.444;2023-04-24T01:45:58;0.30;;;0.30;;
22841;SDS011;11587;47.064;15.444;2023-04-24T01:48:24;0.30;;;0.30;;
22841;SDS011;11587;47.064;15.444;2023-04-24T01:50:50;0.20;;;0.20;;
22841;SDS011;11587;47.064;15.444;2023-04-24T01:53:16;0.20;;;0.20;;
22841;SDS011;11587;47.064;15.444;2023-04-24T01:55:43;0.13;;;0.13;;
22841;SDS011;11587;47.064;15.444;2023-04-24T01:58:09;0.17;;;0.17;;
22841;SDS011;11587;47.064;15.444;2023-04-24T02:00:35;0.20;;;0.20;;
22841;SDS011;11587;47.064;15.444;2023-04-24T02:03:01;0.20;;;0.20;;
22841;SDS011;11587;47.064;15.444;2023-04-24T02:05:28;0.20;;;0.20;;
22841;SDS011;11587;47.064;15.444;2023-04-24T02:07:54;0.20;;;0.20;;
22841;SDS011;11587;47.064;15.444;2023-04-24T02:10:20;0.20;;;0.20;;
22841;SDS011;11587;47.064;15.444;2023-04-24T02:12:46;0.10;;;0.10;;
22841;SDS011;11587;47.064;15.444;2023-04-24T02:15:13;0.10;;;0.10;;
22841;SDS011;11587;47.064;15.444;2023-04-24T02:17:39;0.10;;;0.10;;
22841;SDS011;11587;47.064;15.444;2023-04-24T02:20:05;0.20;;;0.20;;
22841;SDS011;11587;47.064;15.444;2023-04-24T02:22:32;0.30;;;0.30;;
22841;SDS011;11587;47.064;15.444;2023-04-24T02:24:58;0.30;;;0.30;;
22841;SDS011;11587;47.064;15.444;2023-04-24T02:27:24;0.30;;;0.30;;
22841;SDS011;11587;47.064;15.444;2023-04-24T02:29:50;0.30;;;0.30;;
22841;SDS011;11587;47.064;15.444;2023-04-24T02:32:16;0.30;;;0.30;;
22841;SDS011;11587;47.064;15.444;2023-04-24T02:34:42;0.30;;;0.30;;
22841;SDS011;11587;47.064;15.444;2023-04-24T02:37:08;0.30;;;0.30;;
22841;SDS011;11587;47.064;15.444;2023-04-24T02:39:34;0.22;;;0.22;;
22841;SDS011;11587;47.064;15.444;2023-04-24T02:42:00;0.30;;;0.30;;
22841;SDS011;11587;47.064;15.444;2023-04-24T02:44:26;0.30;;;0.30;;
22841;SDS011;11587;47.064;15.444;2023-04-24T02:46:53;0.30;;;0.30;;
22841;SDS011;11587;47.064;15.444;2023-04-24T02:49:19;0.30;;;0.30;;
22841;SDS011;11587;47.064;15.444;2023-04-24T02:51:45;0.30;;;0.30;;
22841;SDS011;11587;47.064;15.444;2023-04-24T02:54:11;0.30;;;0.30;;
22841;SDS011;11587;47.064;15.444;2023-04-24T02:56:37;0.30;;;0.30;;
22841;SDS011;11587;47.064;15.444;2023-04-24T02:59:06;0.30;;;0.30;;
22841;SDS011;11587;47.064;15.444;2023-04-24T03:01:37;0.30;;;0.30;;
22841;SDS011;11587;47.064;15.444;2023-04-24T03:04:03;0.30;;;0.30;;
22841;SDS011;11587;47.064;15.444;2023-04-24T03:06:29;0.30;;;0.30;;
22841;SDS011;11587;47.064;15.444;2023-04-24T03:08:57;0.30;;;0.30;;
22841;SDS011;11587;47.064;15.444;2023-04-24T03:11:23;0.30;;;0.30;;
22841;SDS011;11587;47.064;15.444;2023-04-24T03:13:50;0.30;;;0.30;;
22841;SDS011;11587;47.064;15.444;2023-04-24T03:16:16;0.30;;;0.30;;
22841;SDS011;11587;47.064;15.444;2023-04-24T03:18:42;0.10;;;0.10;;
22841;SDS011;11587;47.064;15.444;2023-04-24T03:21:08;0.10;;;0.10;;
22841;SDS011;11587;47.064;15.444;2023-04-24T03:23:34;0.20;;;0.20;;
22841;SDS011;11587;47.064;15.444;2023-04-24T03:26:00;0.10;;;0.10;;
22841;SDS011;11587;47.064;15.444;2023-04-24T03:28:27;0.20;;;0.20;;
22841;SDS011;11587;47.064;15.444;2023-04-24T03:30:53;0.20;;;0.20;;
22841;SDS011;11587;47.064;15.444;2023-04-24T03:33:19;0.20;;;0.20;;
22841;SDS011;11587;47.064;15.444;2023-04-24T03:35:45;0.20;;;0.20;;
22841;SDS011;11587;47.064;15.444;2023-04-24T03:38:11;0.20;;;0.20;;
22841;SDS011;11587;47.064;15.444;2023-04-24T03:40:37;0.20;;;0.20;;
22841;SDS011;11587;47.064;15.444;2023-04-24T03:43:03;0.10;;;0.10;;
22841;SDS011;11587;47.064;15.444;2023-04-24T03:45:29;0.20;;;0.20;;
22841;SDS011;11587;47.064;15.444;2023-04-24T03:47:55;0.20;;;0.20;;
22841;SDS011;11587;47.064;15.444;2023-04-24T03:50:21;0.20;;;0.20;;
22841;SDS011;11587;47.064;15.444;2023-04-24T03:52:47;0.20;;;0.20;;
22841;SDS011;11587;47.064;15.444;2023-04-24T03:55:13;0.20;;;0.20;;
22841;SDS011;11587;47.064;15.444;2023-04-24T03:57:42;0.20;;;0.20;;
22841;SDS011;11587;47.064;15.444;2023-04-24T04:00:20;0.10;;;0.10;;
22841;SDS011;11587;47.064;15.444;2023-04-24T04:02:46;0.20;;;0.20;;
22841;SDS011;11587;47.064;15.444;2023-04-24T04:05:12;0.17;;;0.17;;
22841;SDS011;11587;47.064;15.444;2023-04-24T04:07:38;0.15;;;0.15;;
22841;SDS011;11587;47.064;15.444;2023-04-24T04:10:04;0.20;;;0.20;;
22841;SDS011;11587;47.064;15.444;2023-04-24T04:12:32;0.20;;;0.20;;
22841;SDS011;11587;47.064;15.444;2023-04-24T04:15:01;0.20;;;0.20;;
22841;SDS011;11587;47.064;15.444;2023-04-24T04:17:27;0.20;;;0.20;;
22841;SDS011;11587;47.064;15.444;2023-04-24T04:19:53;0.20;;;0.20;;
22841;SDS011;11587;47.064;15.444;2023-04-24T04:22:20;0.20;;;0.20;;
22841;SDS011;11587;47.064;15.444;2023-04-24T04:24:46;0.20;;;0.20;;
22841;SDS011;11587;47.064;15.444;2023-04-24T04:27:12;0.20;;;0.20;;
22841;SDS011;11587;47.064;15.444;2023-04-24T04:29:38;0.20;;;0.20;;
22841;SDS011;11587;47.064;15.444;2023-04-24T04:32:05;0.10;;;0.10;;
22841;SDS011;11587;47.064;15.444;2023-04-24T04:34:31;0.20;;;0.20;;
22841;SDS011;11587;47.064;15.444;2023-04-24T04:36:58;0.20;;;0.20;;
22841;SDS011;11587;47.064;15.444;2023-04-24T04:39:27;0.20;;;0.20;;
22841;SDS011;11587;47.064;15.444;2023-04-24T04:41:53;0.20;;;0.20;;
22841;SDS011;11587;47.064;15.444;2023-04-24T04:44:19;0.20;;;0.20;;
22841;SDS011;11587;47.064;15.444;2023-04-24T04:46:45;0.20;;;0.20;;
22841;SDS011;11587;47.064;15.444;2023-04-24T04:49:12;0.20;;;0.20;;
22841;SDS011;11587;47.064;15.444;2023-04-24T04:51:41;0.20;;;0.20;;
22841;SDS011;11587;47.064;15.444;2023-04-24T04:54:08;0.20;;;0.20;;
22841;SDS011;11587;47.064;15.444;2023-04-24T04:56:34;0.10;;;0.10;;
22841;SDS011;11587;47.064;15.444;2023-04-24T04:59:00;0.20;;;0.20;;
22841;SDS011;11587;47.064;15.444;2023-04-24T05:01:26;0.20;;;0.20;;
22841;SDS011;11587;47.064;15.444;2023-04-24T05:03:52;0.10;;;0.10;;
22841;SDS011;11587;47.064;15.444;2023-04-24T05:06:18;0.20;;;0.20;;
22841;SDS011;11587;47.064;15.444;2023-04-24T05:08:45;0.20;;;0.20;;
22841;SDS011;11587;47.064;15.444;2023-04-24T05:11:11;0.20;;;0.20;;
22841;SDS011;11587;47.064;15.444;2023-04-24T05:13:37;0.20;;;0.20;;
22841;SDS011;11587;47.064;15.444;2023-04-24T05:16:03;0.10;;;0.10;;
22841;SDS011;11587;47.064;15.444;2023-04-24T05:18:29;0.25;;;0.25;;
22841;SDS011;11587;47.064;15.444;2023-04-24T05:20:55;0.30;;;0.30;;
22841;SDS011;11587;47.064;15.444;2023-04-24T05:23:21;0.30;;;0.30;;
22841;SDS011;11587;47.064;15.444;2023-04-24T05:25:47;0.40;;;0.40;;
22841;SDS011;11587;47.064;15.444;2023-04-24T05:28:13;0.20;;;0.20;;
22841;SDS011;11587;47.064;15.444;2023-04-24T05:30:40;0.30;;;0.30;;
22841;SDS011;11587;47.064;15.444;2023-04-24T05:33:06;0.30;;;0.30;;
22841;SDS011;11587;47.064;15.444;2023-04-24T05:35:33;0.30;;;0.30;;
22841;SDS011;11587;47.064;15.444;2023-04-24T05:37:59;0.30;;;0.30;;
22841;SDS011;11587;47.064;15.444;2023-04-24T05:40:26;0.17;;;0.17;;
22841;SDS011;11587;47.064;15.444;2023-04-24T05:42:52;0.20;;;0.20;;
22841;SDS011;11587;47.064;15.444;2023-04-24T05:45:18;0.20;;;0.20;;
22841;SDS011;11587;47.064;15.444;2023-04-24T05:47:44;0.15;;;0.15;;
22841;SDS011;11587;47.064;15.444;2023-04-24T05:50:10;0.20;;;0.20;;
22841;SDS011;11587;47.064;15.444;2023-04-24T05:52:37;0.20;;;0.20;;
22841;SDS011;11587;47.064;15.444;2023-04-24T05:55:03;0.20;;;0.20;;
22841;SDS011;11587;47.064;15.444;2023-04-24T05:57:29;0.10;;;0.10;;
22841;SDS011;11587;47.064;15.444;2023-04-24T05:59:55;0.10;;;0.10;;
22841;SDS011;11587;47.064;15.444;2023-04-24T06:02:21;0.20;;;0.20;;
22841;SDS011;11587;47.064;15.444;2023-04-24T06:04:47;0.20;;;0.20;;
22841;SDS011;11587;47.064;15.444;2023-04-24T06:07:13;0.10;;;0.10;;
22841;SDS011;11587;47.064;15.444;2023-04-24T06:09:39;0.20;;;0.20;;
22841;SDS011;11587;47.064;15.444;2023-04-24T06:12:05;0.10;;;0.10;;
22841;SDS011;11587;47.064;15.444;2023-04-24T06:14:33;0.10;;;0.10;;
22841;SDS011;11587;47.064;15.444;2023-04-24T06:16:59;0.10;;;0.10;;
22841;SDS011;11587;47.064;15.444;2023-04-24T06:19:25;0.10;;;0.10;;
22841;SDS011;11587;47.064;15.444;2023-04-24T06:21:51;0.10;;;0.10;;
22841;SDS011;11587;47.064;15.444;2023-04-24T06:24:17;0.10;;;0.10;;
22841;SDS011;11587;47.064;15.444;2023-04-24T06:26:43;0.10;;;0.10;;
22841;SDS011;11587;47.064;15.444;2023-04-24T06:29:09;0.10;;;0.10;;
22841;SDS011;11587;47.064;15.444;2023-04-24T06:31:35;0.20;;;0.20;;
22841;SDS011;11587;47.064;15.444;2023-04-24T06:34:02;0.20;;;0.20;;
22841;SDS011;11587;47.064;15.444;2023-04-24T06:36:28;0.17;;;0.17;;
22841;SDS011;11587;47.064;15.444;2023-04-24T06:38:55;0.20;;;0.20;;
22841;SDS011;11587;47.064;15.444;2023-04-24T06:41:22;0.20;;;0.20;;
22841;SDS011;11587;47.064;15.444;2023-04-24T06:43:48;0.10;;;0.10;;
22841;SDS011;11587;47.064;15.444;2023-04-24T06:46:14;0.20;;;0.20;;
22841;SDS011;11587;47.064;15.444;2023-04-24T06:48:40;0.20;;;0.20;;
22841;SDS011;11587;47.064;15.444;2023-04-24T06:51:06;0.20;;;0.20;;
22841;SDS011;11587;47.064;15.444;2023-04-24T06:53:32;0.20;;;0.20;;
22841;SDS011;11587;47.064;15.444;2023-04-24T06:55:58;0.20;;;0.20;;
22841;SDS011;11587;47.064;15.444;2023-04-24T06:58:24;0.20;;;0.20;;
22841;SDS011;11587;47.064;15.444;2023-04-24T07:00:51;0.20;;;0.20;;
22841;SDS011;11587;47.064;15.444;2023-04-24T07:03:17;0.20;;;0.20;;
22841;SDS011;11587;47.064;15.444;2023-04-24T07:05:43;0.15;;;0.15;;
22841;SDS011;11587;47.064;15.444;2023-04-24T07:08:09;0.20;;;0.20;;
22841;SDS011;11587;47.064;15.444;2023-04-24T07:10:36;0.20;;;0.20;;
22841;SDS011;11587;47.064;15.444;2023-04-24T07:13:02;0.10;;;0.10;;
22841;SDS011;11587;47.064;15.444;2023-04-24T07:15:29;0.20;;;0.20;;
22841;SDS011;11587;47.064;15.444;2023-04-24T07:17:55;0.20;;;0.20;;
22841;SDS011;11587;47.064;15.444;2023-04-24T07:20:21;0.10;;;0.10;;
22841;SDS011;11587;47.064;15.444;2023-04-24T07:22:47;0.20;;;0.20;;
22841;SDS011;11587;47.064;15.444;2023-04-24T07:25:14;0.20;;;0.20;;
22841;SDS011;11587;47.064;15.444;2023-04-24T07:27:40;0.10;;;0.10;;
22841;SDS011;11587;47.064;15.444;2023-04-24T07:30:06;0.10;;;0.10;;
22841;SDS011;11587;47.064;15.444;2023-04-24T07:32:33;0.10;;;0.10;;
22841;SDS011;11587;47.064;15.444;2023-04-24T07:34:59;0.10;;;0.10;;
22841;SDS011;11587;47.064;15.444;2023-04-24T07:37:26;0.10;;;0.10;;
22841;SDS011;11587;47.064;15.444;2023-04-24T07:39:52;0.10;;;0.10;;
22841;SDS011;11587;47.064;15.444;2023-04-24T07:42:18;0.10;;;0.10;;
22841;SDS011;11587;47.064;15.444;2023-04-24T07:44:44;0.10;;;0.10;;
22841;SDS011;11587;47.064;15.444;2023-04-24T07:47:11;0.20;;;0.20;;
22841;SDS011;11587;47.064;15.444;2023-04-24T07:49:37;0.15;;;0.15;;
22841;SDS011;11587;47.064;15.444;2023-04-24T07:52:03;0.10;;;0.10;;
22841;SDS011;11587;47.064;15.444;2023-04-24T07:54:29;0.10;;;0.10;;
22841;SDS011;11587;47.064;15.444;2023-04-24T07:56:55;0.10;;;0.10;;
22841;SDS011;11587;47.064;15.444;2023-04-24T07:59:21;0.20;;;0.20;;
22841;SDS011;11587;47.064;15.444;2023-04-24T08:01:47;0.20;;;0.20;;
22841;SDS011;11587;47.064;15.444;2023-04-24T08:04:14;0.13;;;0.13;;
22841;SDS011;11587;47.064;15.444;2023-04-24T08:06:40;0.10;;;0.10;;
22841;SDS011;11587;47.064;15.444;2023-04-24T08:09:06;0.10;;;0.10;;
22841;SDS011;11587;47.064;15.444;2023-04-24T08:11:32;0.10;;;0.10;;
22841;SDS011;11587;47.064;15.444;2023-04-24T08:13:58;0.10;;;0.10;;
22841;SDS011;11587;47.064;15.444;2023-04-24T08:16:24;0.10;;;0.10;;
22841;SDS011;11587;47.064;15.444;2023-04-24T08:18:50;0.20;;;0.20;;
22841;SDS011;11587;47.064;15.444;2023-04-24T08:21:16;0.15;;;0.15;;
22841;SDS011;11587;47.064;15.444;2023-04-24T08:23:44;0.10;;;0.10;;
22841;SDS011;11587;47.064;15.444;2023-04-24T08:26:10;0.10;;;0.10;;
22841;SDS011;11587;47.064;15.444;2023-04-24T08:28:37;0.10;;;0.10;;
22841;SDS011;11587;47.064;15.444;2023-04-24T08:31:03;0.10;;;0.10;;
22841;SDS011;11587;47.064;15.444;2023-04-24T08:33:29;0.10;;;0.10;;
22841;SDS011;11587;47.064;15.444;2023-04-24T08:36:00;0.10;;;0.10;;
22841;SDS011;11587;47.064;15.444;2023-04-24T08:38:26;0.20;;;0.20;;
22841;SDS011;11587;47.064;15.444;2023-04-24T08:40:52;0.20;;;0.20;;
22841;SDS011;11587;47.064;15.444;2023-04-24T08:43:18;0.20;;;0.20;;
22841;SDS011;11587;47.064;15.444;2023-04-24T08:45:47;0.20;;;0.20;;
22841;SDS011;11587;47.064;15.444;2023-04-24T08:48:13;0.20;;;0.20;;
22841;SDS011;11587;47.064;15.444;2023-04-24T08:50:40;0.20;;;0.20;;
22841;SDS011;11587;47.064;15.444;2023-04-24T08:53:08;0.20;;;0.20;;
22841;SDS011;11587;47.064;15.444;2023-04-24T08:55:34;0.20;;;0.20;;
22841;SDS011;11587;47.064;15.444;2023-04-24T08:58:01;0.20;;;0.20;;
22841;SDS011;11587;47.064;15.444;2023-04-24T09:00:28;0.20;;;0.20;;
22841;SDS011;11587;47.064;15.444;2023-04-24T09:02:54;0.20;;;0.20;;
22841;SDS011;11587;47.064;15.444;2023-04-24T09:05:21;0.20;;;0.20;;
22841;SDS011;11587;47.064;15.444;2023-04-24T09:07:57;0.20;;;0.20;;
22841;SDS011;11587;47.064;15.444;2023-04-24T09:10:25;0.20;;;0.20;;
22841;SDS011;11587;47.064;15.444;2023-04-24T09:12:52;0.20;;;0.20;;
22841;SDS011;11587;47.064;15.444;2023-04-24T09:15:19;0.20;;;0.20;;
22841;SDS011;11587;47.064;15.444;2023-04-24T09:17:47;0.20;;;0.20;;
22841;SDS011;11587;47.064;15.444;2023-04-24T09:20:13;0.20;;;0.20;;
22841;SDS011;11587;47.064;15.444;2023-04-24T09:22:40;0.20;;;0.20;;
22841;SDS011;11587;47.064;15.444;2023-04-24T09:25:07;0.30;;;0.30;;
22841;SDS011;11587;47.064;15.444;2023-04-24T09:27:34;0.30;;;0.30;;
22841;SDS011;11587;47.064;15.444;2023-04-24T09:30:00;0.30;;;0.30;;
22841;SDS011;11587;47.064;15.444;2023-04-24T09:32:26;0.30;;;0.30;;
22841;SDS011;11587;47.064;15.444;2023-04-24T09:37:36;0.30;;;0.30;;
22841;SDS011;11587;47.064;15.444;2023-04-24T09:42:58;0.20;;;0.20;;
22841;SDS011;11587;47.064;15.444;2023-04-24T09:45:37;0.20;;;0.20;;
22841;SDS011;11587;47.064;15.444;2023-04-24T09:48:04;0.20;;;0.20;;
22841;SDS011;11587;47.064;15.444;2023-04-24T09:50:31;0.20;;;0.20;;
22841;SDS011;11587;47.064;15.444;2023-04-24T09:53:04;0.20;;;0.20;;
22841;SDS011;11587;47.064;15.444;2023-04-24T09:55:30;0.20;;;0.20;;
22841;SDS011;11587;47.064;15.444;2023-04-24T09:57:58;0.20;;;0.20;;
22841;SDS011;11587;47.064;15.444;2023-04-24T10:00:31;0.20;;;0.20;;
22841;SDS011;11587;47.064;15.444;2023-04-24T10:02:58;0.20;;;0.20;;
22841;SDS011;11587;47.064;15.444;2023-04-24T10:05:31;0.20;;;0.20;;
22841;SDS011;11587;47.064;15.444;2023-04-24T10:08:15;0.20;;;0.20;;
22841;SDS011;11587;47.064;15.444;2023-04-24T10:10:42;0.20;;;0.20;;
22841;SDS011;11587;47.064;15.444;2023-04-24T10:13:12;0.20;;;0.20;;
22841;SDS011;11587;47.064;15.444;2023-04-24T10:15:38;0.20;;;0.20;;
22841;SDS011;11587;47.064;15.444;2023-04-24T10:18:05;0.20;;;0.20;;
22841;SDS011;11587;47.064;15.444;2023-04-24T10:20:32;0.20;;;0.20;;
22841;SDS011;11587;47.064;15.444;2023-04-24T10:22:58;0.20;;;0.20;;
22841;SDS011;11587;47.064;15.444;2023-04-24T10:25:30;0.20;;;0.20;;
22841;SDS011;11587;47.064;15.444;2023-04-24T10:27:56;0.20;;;0.20;;
22841;SDS011;11587;47.064;15.444;2023-04-24T10:30:24;0.20;;;0.20;;
22841;SDS011;11587;47.064;15.444;2023-04-24T10:32:50;0.10;;;0.10;;
22841;SDS011;11587;47.064;15.444;2023-04-24T10:35:17;0.10;;;0.10;;
22841;SDS011;11587;47.064;15.444;2023-04-24T10:37:48;0.20;;;0.20;;
22841;SDS011;11587;47.064;15.444;2023-04-24T10:40:18;0.20;;;0.20;;
22841;SDS011;11587;47.064;15.444;2023-04-24T10:42:48;0.20;;;0.20;;
22841;SDS011;11587;47.064;15.444;2023-04-24T10:45:17;0.20;;;0.20;;
22841;SDS011;11587;47.064;15.444;2023-04-24T10:47:59;0.20;;;0.20;;
22841;SDS011;11587;47.064;15.444;2023-04-24T10:50:27;0.20;;;0.20;;
22841;SDS011;11587;47.064;15.444;2023-04-24T10:52:53;0.20;;;0.20;;
22841;SDS011;11587;47.064;15.444;2023-04-24T10:55:40;0.20;;;0.20;;
22841;SDS011;11587;47.064;15.444;2023-04-24T10:58:07;0.20;;;0.20;;
22841;SDS011;11587;47.064;15.444;2023-04-24T11:00:34;0.10;;;0.10;;
22841;SDS011;11587;47.064;15.444;2023-04-24T11:03:01;0.10;;;0.10;;
22841;SDS011;11587;47.064;15.444;2023-04-24T11:05:49;0.10;;;0.10;;
22841;SDS011;11587;47.064;15.444;2023-04-24T11:08:21;0.20;;;0.20;;
22841;SDS011;11587;47.064;15.444;2023-04-24T11:10:58;0.20;;;0.20;;
22841;SDS011;11587;47.064;15.444;2023-04-24T11:13:25;0.20;;;0.20;;
22841;SDS011;11587;47.064;15.444;2023-04-24T11:18:37;0.20;;;0.20;;
22841;SDS011;11587;47.064;15.444;2023-04-24T11:21:11;0.10;;;0.10;;
22841;SDS011;11587;47.064;15.444;2023-04-24T11:23:37;0.10;;;0.10;;
22841;SDS011;11587;47.064;15.444;2023-04-24T11:26:10;0.10;;;0.10;;
22841;SDS011;11587;47.064;15.444;2023-04-24T11:28:37;0.10;;;0.10;;
22841;SDS011;11587;47.064;15.444;2023-04-24T11:33:54;0.10;;;0.10;;
22841;SDS011;11587;47.064;15.444;2023-04-24T11:36:20;0.20;;;0.20;;
22841;SDS011;11587;47.064;15.444;2023-04-24T11:38:46;0.10;;;0.10;;
22841;SDS011;11587;47.064;15.444;2023-04-24T11:41:12;0.10;;;0.10;;
22841;SDS011;11587;47.064;15.444;2023-04-24T11:43:39;0.13;;;0.13;;
22841;SDS011;11587;47.064;15.444;2023-04-24T11:46:05;0.15;;;0.15;;
22841;SDS011;11587;47.064;15.444;2023-04-24T11:48:34;0.10;;;0.10;;
22841;SDS011;11587;47.064;15.444;2023-04-24T11:51:05;0.10;;;0.10;;
22841;SDS011;11587;47.064;15.444;2023-04-24T11:53:31;0.20;;;0.20;;
22841;SDS011;11587;47.064;15.444;2023-04-24T11:56:02;0.10;;;0.10;;
22841;SDS011;11587;47.064;15.444;2023-04-24T11:58:28;0.13;;;0.13;;
22841;SDS011;11587;47.064;15.444;2023-04-24T12:00:57;0.10;;;0.10;;
22841;SDS011;11587;47.064;15.444;2023-04-24T12:03:23;0.20;;;0.20;;
22841;SDS011;11587;47.064;15.444;2023-04-24T12:05:49;0.20;;;0.20;;
22841;SDS011;11587;47.064;15.444;2023-04-24T12:08:28;0.10;;;0.10;;
22841;SDS011;11587;47.064;15.444;2023-04-24T12:10:54;0.20;;;0.20;;
22841;SDS011;11587;47.064;15.444;2023-04-24T12:13:20;0.10;;;0.10;;
22841;SDS011;11587;47.064;15.444;2023-04-24T12:15:47;0.10;;;0.10;;
22841;SDS011;11587;47.064;15.444;2023-04-24T12:18:13;0.20;;;0.20;;
22841;SDS011;11587;47.064;15.444;2023-04-24T12:20:41;0.10;;;0.10;;
22841;SDS011;11587;47.064;15.444;2023-04-24T12:23:07;0.10;;;0.10;;
22841;SDS011;11587;47.064;15.444;2023-04-24T12:25:33;0.10;;;0.10;;
22841;SDS011;11587;47.064;15.444;2023-04-24T12:30:30;0.10;;;0.10;;
22841;SDS011;11587;47.064;15.444;2023-04-24T12:32:59;0.10;;;0.10;;
22841;SDS011;11587;47.064;15.444;2023-04-24T12:35:27;0.10;;;0.10;;
22841;SDS011;11587;47.064;15.444;2023-04-24T12:37:53;0.10;;;0.10;;
22841;SDS011;11587;47.064;15.444;2023-04-24T12:40:20;0.10;;;0.10;;
22841;SDS011;11587;47.064;15.444;2023-04-24T12:42:50;0.10;;;0.10;;
22841;SDS011;11587;47.064;15.444;2023-04-24T12:45:16;0.10;;;0.10;;
22841;SDS011;11587;47.064;15.444;2023-04-24T12:47:43;0.10;;;0.10;;
22841;SDS011;11587;47.064;15.444;2023-04-24T12:50:10;0.10;;;0.10;;
22841;SDS011;11587;47.064;15.444;2023-04-24T12:52:36;0.08;;;0.08;;
22841;SDS011;11587;47.064;15.444;2023-04-24T12:55:02;0.10;;;0.10;;
22841;SDS011;11587;47.064;15.444;2023-04-24T12:57:30;0.10;;;0.10;;
22841;SDS011;11587;47.064;15.444;2023-04-24T12:59:56;0.10;;;0.10;;
22841;SDS011;11587;47.064;15.444;2023-04-24T13:02:23;0.08;;;0.08;;
22841;SDS011;11587;47.064;15.444;2023-04-24T13:04:50;0.00;;;0.00;;
22841;SDS011;11587;47.064;15.444;2023-04-24T13:07:16;0.00;;;0.00;;
22841;SDS011;11587;47.064;15.444;2023-04-24T13:09:43;0.10;;;0.10;;
22841;SDS011;11587;47.064;15.444;2023-04-24T13:12:09;0.00;;;0.00;;
22841;SDS011;11587;47.064;15.444;2023-04-24T13:14:35;0.00;;;0.00;;
22841;SDS011;11587;47.064;15.444;2023-04-24T13:17:02;0.00;;;0.00;;
22841;SDS011;11587;47.064;15.444;2023-04-24T13:19:28;0.10;;;0.10;;
22841;SDS011;11587;47.064;15.444;2023-04-24T13:21:55;0.00;;;0.00;;
22841;SDS011;11587;47.064;15.444;2023-04-24T13:24:24;0.00;;;0.00;;
22841;SDS011;11587;47.064;15.444;2023-04-24T13:26:51;0.00;;;0.00;;
22841;SDS011;11587;47.064;15.444;2023-04-24T13:29:17;0.00;;;0.00;;
22841;SDS011;11587;47.064;15.444;2023-04-24T13:31:43;0.10;;;0.10;;
22841;SDS011;11587;47.064;15.444;2023-04-24T13:34:09;0.10;;;0.10;;
22841;SDS011;11587;47.064;15.444;2023-04-24T13:36:35;0.10;;;0.10;;
22841;SDS011;11587;47.064;15.444;2023-04-24T13:39:02;0.10;;;0.10;;
22841;SDS011;11587;47.064;15.444;2023-04-24T13:41:29;0.10;;;0.10;;
22841;SDS011;11587;47.064;15.444;2023-04-24T13:43:55;0.10;;;0.10;;
22841;SDS011;11587;47.064;15.444;2023-04-24T13:46:21;0.10;;;0.10;;
22841;SDS011;11587;47.064;15.444;2023-04-24T13:48:47;0.00;;;0.00;;
22841;SDS011;11587;47.064;15.444;2023-04-24T13:51:13;0.10;;;0.10;;
22841;SDS011;11587;47.064;15.444;2023-04-24T13:53:39;0.10;;;0.10;;
22841;SDS011;11587;47.064;15.444;2023-04-24T13:56:05;0.10;;;0.10;;
22841;SDS011;11587;47.064;15.444;2023-04-24T13:58:31;0.10;;;0.10;;
22841;SDS011;11587;47.064;15.444;2023-04-24T14:00:57;0.10;;;0.10;;
22841;SDS011;11587;47.064;15.444;2023-04-24T14:03:24;0.10;;;0.10;;
22841;SDS011;11587;47.064;15.444;2023-04-24T14:05:50;0.00;;;0.00;;
22841;SDS011;11587;47.064;15.444;2023-04-24T14:08:16;0.10;;;0.10;;
22841;SDS011;11587;47.064;15.444;2023-04-24T14:10:42;0.10;;;0.10;;
22841;SDS011;11587;47.064;15.444;2023-04-24T14:13:08;0.10;;;0.10;;
22841;SDS011;11587;47.064;15.444;2023-04-24T14:15:37;0.10;;;0.10;;
22841;SDS011;11587;47.064;15.444;2023-04-24T14:18:03;0.10;;;0.10;;
22841;SDS011;11587;47.064;15.444;2023-04-24T14:20:29;0.10;;;0.10;;
22841;SDS011;11587;47.064;15.444;2023-04-24T14:22:55;0.10;;;0.10;;
22841;SDS011;11587;47.064;15.444;2023-04-24T14:25:24;0.10;;;0.10;;
22841;SDS011;11587;47.064;15.444;2023-04-24T14:27:50;0.10;;;0.10;;
22841;SDS011;11587;47.064;15.444;2023-04-24T14:30:16;0.10;;;0.10;;
22841;SDS011;11587;47.064;15.444;2023-04-24T14:32:42;0.10;;;0.10;;
22841;SDS011;11587;47.064;15.444;2023-04-24T14:35:08;0.10;;;0.10;;
22841;SDS011;11587;47.064;15.444;2023-04-24T14:37:34;0.10;;;0.10;;
22841;SDS011;11587;47.064;15.444;2023-04-24T14:40:01;0.10;;;0.10;;
22841;SDS011;11587;47.064;15.444;2023-04-24T14:42:27;0.10;;;0.10;;
22841;SDS011;11587;47.064;15.444;2023-04-24T14:44:53;0.10;;;0.10;;